createdAt,value
2018-07-04T00:01:05.615Z,17.30
2018-07-04T00:04:15.511Z,17.20
2018-07-04T00:10:20.977Z,17.10
2018-07-04T00:13:30.705Z,17.10
2018-07-04T00:16:40.671Z,17.10
2018-07-04T00:19:50.409Z,17.10
2018-07-04T00:23:00.066Z,17.10
2018-07-04T00:26:10.102Z,17.10
2018-07-04T00:29:19.857Z,17.20
2018-07-04T00:32:29.600Z,17.10
2018-07-04T00:35:39.307Z,17.10
2018-07-04T00:38:49.051Z,17.20
2018-07-04T00:41:58.939Z,17.50
2018-07-04T00:45:08.489Z,17.60
2018-07-04T00:48:18.090Z,17.70
2018-07-04T00:51:27.687Z,17.80
2018-07-04T00:54:37.489Z,17.70
2018-07-04T00:57:48.346Z,17.70
2018-07-04T01:03:54.283Z,17.60
2018-07-04T01:07:03.943Z,17.60
2018-07-04T01:10:13.899Z,17.60
2018-07-04T01:13:23.847Z,17.60
2018-07-04T01:16:33.773Z,17.60
2018-07-04T01:19:43.746Z,17.60
2018-07-04T01:25:49.214Z,17.60
2018-07-04T01:28:59.018Z,17.50
2018-07-04T01:32:09.109Z,17.40
2018-07-04T01:35:18.862Z,17.40
2018-07-04T01:38:28.433Z,17.30
2018-07-04T01:41:38.497Z,17.20
2018-07-04T01:44:48.418Z,17.10
2018-07-04T01:47:58.061Z,17.10
2018-07-04T01:51:07.835Z,17.10
2018-07-04T01:54:17.634Z,17.10
2018-07-04T01:57:27.425Z,17.00
2018-07-04T02:00:36.978Z,17.00
2018-07-04T02:03:46.551Z,16.90
2018-07-04T02:06:56.312Z,16.90
2018-07-04T02:10:07.165Z,16.80
2018-07-04T02:13:17.151Z,16.80
2018-07-04T02:16:26.958Z,16.70
2018-07-04T02:19:36.680Z,16.70
2018-07-04T02:22:46.327Z,16.60
2018-07-04T02:25:55.846Z,16.60
2018-07-04T02:29:05.735Z,16.50
2018-07-04T02:32:15.700Z,16.50
2018-07-04T02:35:25.556Z,16.50
2018-07-04T02:38:35.230Z,16.50
2018-07-04T02:41:44.909Z,16.50
2018-07-04T02:44:54.876Z,16.50
2018-07-04T02:48:04.646Z,16.40
2018-07-04T02:51:14.380Z,16.40
2018-07-04T02:54:24.159Z,16.40
2018-07-04T02:57:34.163Z,16.40
2018-07-04T03:00:43.878Z,16.50
2018-07-04T03:03:53.934Z,16.40
2018-07-04T03:07:03.828Z,16.40
2018-07-04T03:10:13.681Z,16.40
2018-07-04T03:13:23.612Z,16.30
2018-07-04T03:16:33.190Z,16.30
2018-07-04T03:19:42.906Z,16.30
2018-07-04T03:22:52.012Z,16.30
2018-07-04T03:26:01.664Z,16.40
2018-07-04T03:29:11.670Z,16.30
2018-07-04T03:32:21.547Z,16.40
2018-07-04T03:35:31.466Z,16.30
2018-07-04T03:38:41.193Z,16.40
2018-07-04T03:41:50.925Z,16.30
2018-07-04T03:45:00.631Z,16.30
2018-07-04T03:48:10.535Z,16.30
2018-07-04T03:51:20.349Z,16.30
2018-07-04T03:54:30.190Z,16.30
2018-07-04T03:57:39.806Z,16.30
2018-07-04T04:00:49.554Z,16.40
2018-07-04T04:03:59.309Z,16.50
2018-07-04T04:07:08.958Z,16.60
2018-07-04T04:10:18.746Z,16.60
2018-07-04T04:16:24.211Z,16.60
2018-07-04T04:22:29.775Z,16.60
2018-07-04T04:25:39.634Z,16.60
2018-07-04T04:28:49.366Z,16.80
2018-07-04T04:31:59.264Z,17.00
2018-07-04T04:35:09.089Z,17.00
2018-07-04T04:38:18.715Z,16.90
2018-07-04T04:41:28.408Z,16.70
2018-07-04T04:44:38.006Z,16.60
2018-07-04T04:47:47.766Z,16.50
2018-07-04T04:50:57.601Z,16.70
2018-07-04T04:54:07.276Z,16.70
2018-07-04T04:57:16.897Z,16.80
2018-07-04T05:00:26.759Z,16.70
2018-07-04T05:06:32.581Z,17.00
2018-07-04T05:09:42.392Z,17.00
2018-07-04T05:12:55.001Z,17.00
2018-07-04T05:16:05.824Z,16.90
2018-07-04T05:19:15.758Z,16.80
2018-07-04T05:22:25.578Z,17.10
2018-07-04T05:25:35.250Z,17.30
2018-07-04T05:28:44.871Z,17.30
2018-07-04T05:31:54.666Z,17.20
2018-07-04T05:35:04.685Z,17.30
2018-07-04T05:38:14.865Z,17.30
2018-07-04T05:41:24.708Z,17.40
2018-07-04T05:44:34.657Z,17.20
2018-07-04T05:47:44.415Z,17.30
2018-07-04T05:50:54.199Z,17.50
2018-07-04T05:54:03.991Z,17.70
2018-07-04T05:57:13.703Z,17.90
2018-07-04T06:00:23.288Z,17.90
2018-07-04T06:03:33.209Z,17.90
2018-07-04T06:06:43.211Z,17.90
2018-07-04T06:09:53.081Z,18.00
2018-07-04T06:13:03.065Z,18.20
2018-07-04T06:16:12.595Z,18.30
2018-07-04T06:19:22.378Z,18.20
2018-07-04T06:22:32.071Z,18.10
2018-07-04T06:25:42.067Z,18.30
2018-07-04T06:28:51.921Z,18.30
2018-07-04T06:32:01.776Z,18.20
2018-07-04T06:35:11.599Z,18.40
2018-07-04T06:38:09.426Z,18.50
2018-07-04T06:41:07.202Z,18.50
2018-07-04T06:44:05.016Z,18.70
2018-07-04T06:47:02.619Z,18.70
2018-07-04T06:50:00.382Z,18.80
2018-07-04T06:52:58.171Z,18.90
2018-07-04T06:55:57.144Z,18.90
2018-07-04T06:58:54.968Z,19.00
2018-07-04T07:01:52.650Z,19.20
2018-07-04T07:05:03.238Z,20.00
2018-07-04T07:08:13.198Z,21.30
2018-07-04T07:11:22.827Z,21.90
2018-07-04T07:14:32.663Z,22.70
2018-07-04T07:17:42.199Z,23.10
2018-07-04T07:20:51.806Z,23.50
2018-07-04T07:26:57.543Z,25.40
2018-07-04T07:30:07.328Z,24.60
2018-07-04T07:33:17.043Z,24.90
2018-07-04T07:36:26.724Z,25.50
2018-07-04T07:39:44.497Z,25.20
2018-07-04T07:42:54.367Z,24.20
2018-07-04T07:46:04.116Z,24.40
2018-07-04T07:49:13.831Z,24.40
2018-07-04T07:52:23.687Z,24.30
2018-07-04T07:55:33.451Z,25.00
2018-07-04T07:58:43.181Z,24.90
2018-07-04T08:01:53.064Z,25.70
2018-07-04T08:05:02.656Z,26.30
2018-07-04T08:08:12.577Z,25.70
2018-07-04T08:11:22.293Z,25.00
2018-07-04T08:14:31.978Z,25.70
2018-07-04T08:17:41.687Z,25.80
2018-07-04T08:20:51.204Z,26.50
2018-07-04T08:24:00.953Z,25.60
2018-07-04T08:27:10.697Z,25.80
2018-07-04T08:30:20.401Z,25.70
2018-07-04T08:33:30.993Z,25.50
2018-07-04T08:36:40.716Z,26.00
2018-07-04T08:39:49.729Z,25.90
2018-07-04T08:42:59.816Z,26.70
2018-07-04T08:46:09.493Z,27.30
2018-07-04T08:49:19.321Z,27.30
2018-07-04T08:52:28.429Z,26.50
2018-07-04T08:55:38.051Z,26.10
2018-07-04T08:58:48.222Z,26.10
2018-07-04T09:01:58.074Z,26.10
2018-07-04T09:05:07.267Z,26.40
2018-07-04T09:08:17.138Z,26.60
2018-07-04T09:11:27.085Z,26.20
2018-07-04T09:14:37.004Z,26.20
2018-07-04T09:17:46.107Z,26.80
2018-07-04T09:20:56.098Z,26.70
2018-07-04T09:24:05.858Z,26.90
2018-07-04T09:27:15.021Z,27.30
2018-07-04T09:30:24.992Z,27.10
2018-07-04T09:33:34.746Z,27.60
2018-07-04T09:36:44.444Z,27.80
2018-07-04T09:39:54.194Z,28.20
2018-07-04T09:43:03.695Z,27.20
2018-07-04T09:46:13.489Z,27.00
2018-07-04T09:49:23.533Z,27.90
2018-07-04T09:52:33.491Z,27.10
2018-07-04T09:55:42.491Z,26.70
2018-07-04T09:58:51.639Z,27.70
2018-07-04T10:02:01.371Z,27.10
2018-07-04T10:05:11.280Z,26.30
2018-07-04T10:08:20.959Z,27.10
2018-07-04T10:11:30.682Z,27.10
2018-07-04T10:14:40.516Z,27.70
2018-07-04T10:17:50.508Z,27.20
2018-07-04T10:21:00.230Z,28.30
2018-07-04T10:24:10.039Z,27.70
2018-07-04T10:27:19.720Z,28.20
2018-07-04T10:30:29.266Z,28.40
2018-07-04T10:33:39.048Z,27.60
2018-07-04T10:36:48.707Z,27.90
2018-07-04T10:39:58.500Z,28.90
2018-07-04T10:43:08.283Z,28.20
2018-07-04T10:46:18.076Z,28.70
2018-07-04T10:49:27.671Z,29.60
2018-07-04T10:52:37.325Z,28.60
2018-07-04T10:55:47.126Z,28.10
2018-07-04T10:58:56.851Z,27.60
2018-07-04T11:02:06.490Z,27.30
2018-07-04T11:05:16.379Z,28.10
2018-07-04T11:08:26.159Z,28.70
2018-07-04T11:11:35.879Z,28.00
2018-07-04T11:14:45.659Z,28.10
2018-07-04T11:17:55.085Z,28.30
2018-07-04T11:21:04.618Z,28.60
2018-07-04T11:24:14.072Z,28.90
2018-07-04T11:27:23.714Z,28.80
2018-07-04T11:30:33.245Z,29.30
2018-07-04T11:33:43.113Z,29.70
2018-07-04T11:36:52.626Z,28.90
2018-07-04T11:40:02.287Z,28.10
2018-07-04T11:43:11.823Z,28.10
2018-07-04T11:46:14.428Z,27.50
2018-07-04T11:49:11.988Z,27.80
2018-07-04T11:52:09.674Z,28.20
2018-07-04T11:55:07.380Z,27.90
2018-07-04T11:58:05.136Z,28.00
2018-07-04T12:01:02.649Z,27.60
2018-07-04T12:04:13.013Z,28.70
2018-07-04T12:07:18.182Z,28.90
2018-07-04T12:10:15.236Z,28.40
2018-07-04T12:13:12.347Z,29.00
2018-07-04T12:16:10.053Z,29.40
2018-07-04T12:19:07.755Z,29.80
2018-07-04T12:22:05.709Z,29.40
2018-07-04T12:25:03.397Z,29.30
2018-07-04T12:28:00.534Z,30.20
2018-07-04T12:30:59.465Z,29.70
2018-07-04T12:33:57.320Z,29.90
2018-07-04T12:36:54.367Z,29.30
2018-07-04T12:39:52.178Z,29.00
2018-07-04T12:42:49.187Z,29.40
2018-07-04T12:45:46.972Z,28.90
2018-07-04T12:48:44.834Z,29.50
2018-07-04T12:51:42.422Z,28.40
2018-07-04T12:54:45.978Z,27.60
2018-07-04T12:57:56.505Z,27.30
2018-07-04T13:01:06.195Z,27.60
2018-07-04T13:04:15.884Z,28.00
2018-07-04T13:07:25.381Z,28.00
2018-07-04T13:10:35.254Z,27.50
2018-07-04T13:13:44.873Z,28.60
2018-07-04T13:16:54.827Z,29.20
2018-07-04T13:20:04.359Z,29.70
2018-07-04T13:23:13.986Z,30.20
2018-07-04T13:26:23.635Z,30.50
2018-07-04T13:29:33.185Z,30.60
2018-07-04T13:32:42.862Z,30.00
2018-07-04T13:35:52.382Z,29.90
2018-07-04T13:39:01.982Z,29.60
2018-07-04T13:42:12.738Z,29.90
2018-07-04T13:45:22.478Z,29.60
2018-07-04T13:48:32.945Z,29.10
2018-07-04T13:51:42.682Z,28.80
2018-07-04T13:54:52.356Z,28.50
2018-07-04T13:58:02.103Z,28.90
2018-07-04T14:01:11.875Z,28.90
2018-07-04T14:04:21.500Z,28.60
2018-07-04T14:07:31.107Z,28.30
2018-07-04T14:10:40.682Z,27.90
2018-07-04T14:13:51.097Z,27.60
2018-07-04T14:17:00.279Z,27.30
2018-07-04T14:20:10.084Z,26.70
2018-07-04T14:23:19.882Z,26.70
2018-07-04T14:26:29.930Z,26.50
2018-07-04T14:29:39.634Z,26.90
2018-07-04T14:32:49.296Z,26.30
2018-07-04T14:36:00.185Z,25.70
2018-07-04T14:39:10.971Z,25.10
2018-07-04T14:42:20.693Z,24.70
2018-07-04T14:45:30.539Z,24.80
2018-07-04T14:48:40.214Z,25.20
2018-07-04T14:51:49.803Z,25.40
2018-07-04T14:54:59.459Z,25.40
2018-07-04T14:58:08.995Z,24.90
2018-07-04T15:01:18.810Z,24.20
2018-07-04T15:04:29.280Z,23.80
2018-07-04T15:07:38.949Z,23.40
2018-07-04T15:10:48.563Z,23.20
2018-07-04T15:13:58.926Z,22.90
2018-07-04T15:17:08.771Z,22.90
2018-07-04T15:20:18.347Z,22.60
2018-07-04T15:23:28.003Z,22.60
2018-07-04T15:26:37.584Z,22.60
2018-07-04T15:29:47.171Z,22.50
2018-07-04T15:32:56.707Z,22.60
2018-07-04T15:36:06.170Z,22.80
2018-07-04T15:39:15.813Z,23.40
2018-07-04T15:42:25.466Z,23.50
2018-07-04T15:45:35.285Z,23.50
2018-07-04T15:48:45.256Z,23.40
2018-07-04T15:51:55.106Z,23.10
2018-07-04T15:55:04.685Z,23.00
2018-07-04T15:58:14.452Z,22.80
2018-07-04T16:01:23.947Z,22.90
2018-07-04T16:04:33.506Z,22.50
2018-07-04T16:07:43.358Z,22.60
2018-07-04T16:10:53.739Z,22.90
2018-07-04T16:14:02.940Z,22.90
2018-07-04T16:17:12.546Z,22.60
2018-07-04T16:20:22.350Z,22.50
2018-07-04T16:23:32.043Z,22.50
2018-07-04T16:26:41.894Z,22.70
2018-07-04T16:29:51.749Z,22.70
2018-07-04T16:33:01.397Z,23.00
2018-07-04T16:36:11.140Z,22.90
2018-07-04T16:39:21.042Z,22.60
2018-07-04T16:42:31.066Z,22.30
2018-07-04T16:45:40.953Z,22.40
2018-07-04T16:48:50.632Z,22.40
2018-07-04T16:52:01.354Z,22.20
2018-07-04T16:55:11.098Z,21.70
2018-07-04T16:58:20.841Z,21.80
2018-07-04T17:04:26.427Z,22.00
2018-07-04T17:07:36.460Z,22.00
2018-07-04T17:10:46.281Z,22.10
2018-07-04T17:13:55.809Z,21.70
2018-07-04T17:17:05.744Z,21.70
2018-07-04T17:20:15.450Z,21.80
2018-07-04T17:23:25.071Z,21.80
2018-07-04T17:26:34.795Z,21.50
2018-07-04T17:29:44.464Z,21.30
2018-07-04T17:32:54.335Z,21.20
2018-07-04T17:36:04.177Z,21.10
2018-07-04T17:39:13.850Z,21.10
2018-07-04T17:42:24.142Z,21.00
2018-07-04T17:45:33.269Z,20.90
2018-07-04T17:48:43.403Z,20.90
2018-07-04T17:51:53.263Z,20.80
2018-07-04T17:55:03.160Z,20.70
2018-07-04T17:58:13.323Z,20.50
2018-07-04T18:01:23.053Z,20.70
2018-07-04T18:04:32.934Z,20.70
2018-07-04T18:07:42.687Z,20.70
2018-07-04T18:10:52.833Z,20.60
2018-07-04T18:14:02.853Z,20.60
2018-07-04T18:17:12.713Z,20.50
2018-07-04T18:20:22.802Z,20.50
2018-07-04T18:23:32.660Z,20.40
2018-07-04T18:26:42.744Z,20.40
2018-07-04T18:29:52.456Z,20.20
2018-07-04T18:33:02.015Z,20.10
2018-07-04T18:36:11.711Z,20.10
2018-07-04T18:39:21.786Z,20.10
2018-07-04T18:42:31.409Z,20.10
2018-07-04T18:45:41.048Z,20.00
2018-07-04T18:54:42.245Z,19.80
2018-07-04T18:57:52.032Z,19.90
2018-07-04T19:01:01.857Z,19.80
2018-07-04T19:04:11.654Z,19.60
2018-07-04T19:07:21.352Z,19.60
2018-07-04T19:10:31.191Z,19.50
2018-07-04T19:13:40.903Z,19.30
2018-07-04T19:16:50.902Z,19.30
2018-07-04T19:20:00.585Z,19.30
2018-07-04T19:23:10.453Z,19.30
2018-07-04T19:26:20.467Z,19.20
2018-07-04T19:29:30.319Z,19.10
2018-07-04T19:32:40.236Z,19.10
2018-07-04T19:35:50.081Z,19.10
2018-07-04T19:38:59.911Z,19.00
2018-07-04T19:42:09.872Z,19.00
2018-07-04T19:45:19.710Z,19.00
2018-07-04T19:48:29.070Z,18.80
2018-07-04T19:51:38.904Z,18.70
2018-07-04T19:54:48.793Z,18.60
2018-07-04T19:57:58.935Z,18.60
2018-07-04T20:04:05.068Z,18.40
2018-07-04T20:07:16.307Z,18.40
2018-07-04T20:10:26.085Z,18.30
2018-07-04T20:13:35.622Z,18.20
2018-07-04T20:16:45.374Z,18.10
2018-07-04T20:19:55.155Z,18.10
2018-07-04T20:23:04.774Z,18.10
2018-07-04T20:26:14.586Z,18.10
2018-07-04T20:29:24.483Z,18.00
2018-07-04T20:32:34.228Z,18.00
2018-07-04T20:35:43.924Z,18.00
2018-07-04T20:38:53.634Z,17.90
2018-07-04T20:42:03.269Z,17.80
2018-07-04T20:45:14.149Z,17.80
2018-07-04T20:48:24.839Z,17.90
2018-07-04T20:51:34.871Z,17.80
2018-07-04T20:54:44.824Z,17.70
2018-07-04T20:57:54.525Z,17.60
2018-07-04T21:01:04.204Z,17.50
2018-07-04T21:04:14.907Z,17.40
2018-07-04T21:07:24.947Z,17.30
2018-07-04T21:10:34.795Z,17.20
2018-07-04T21:13:44.338Z,17.10
2018-07-04T21:16:53.976Z,17.00
2018-07-04T21:20:03.761Z,17.00
2018-07-04T21:23:13.549Z,17.00
2018-07-04T21:26:23.503Z,16.90
2018-07-04T21:29:33.344Z,17.00
2018-07-04T21:32:43.319Z,16.90
2018-07-04T21:35:53.128Z,16.80
2018-07-04T21:39:03.049Z,16.70
2018-07-04T21:42:12.632Z,16.60
2018-07-04T21:45:21.735Z,16.50
2018-07-04T21:48:31.690Z,16.40
2018-07-04T21:51:41.488Z,16.30
2018-07-04T21:54:51.303Z,16.30
2018-07-04T21:58:01.081Z,16.20
2018-07-04T22:01:10.614Z,16.10
2018-07-04T22:04:20.641Z,16.10
2018-07-04T22:07:30.121Z,16.10
2018-07-04T22:10:40.405Z,16.00
2018-07-04T22:13:49.908Z,15.90
2018-07-04T22:16:59.643Z,15.80
2018-07-04T22:23:05.996Z,15.70
2018-07-04T22:26:15.761Z,15.70
2018-07-04T22:29:25.458Z,15.70
2018-07-04T22:32:35.109Z,15.60
2018-07-04T22:35:44.985Z,15.50
2018-07-04T22:38:54.755Z,15.50
2018-07-04T22:42:04.797Z,15.50
2018-07-04T22:45:14.778Z,15.50
2018-07-04T22:48:24.316Z,15.50
2018-07-04T22:51:33.929Z,15.40
2018-07-04T22:54:43.793Z,15.40
2018-07-04T22:57:53.633Z,15.40
2018-07-04T23:01:03.262Z,15.30
2018-07-04T23:04:13.179Z,15.30
2018-07-04T23:07:22.850Z,15.30
2018-07-04T23:10:32.497Z,15.40
2018-07-04T23:13:42.061Z,15.30
2018-07-04T23:16:51.976Z,15.30
2018-07-04T23:20:01.561Z,15.30
2018-07-04T23:23:11.514Z,15.40
2018-07-04T23:26:21.176Z,15.40
2018-07-04T23:29:31.099Z,15.40
2018-07-04T23:32:40.942Z,15.30
2018-07-04T23:35:50.874Z,15.20
2018-07-04T23:39:00.793Z,15.30
2018-07-04T23:42:10.626Z,15.30
2018-07-04T23:45:20.302Z,15.30
2018-07-04T23:48:29.899Z,15.30
2018-07-04T23:51:39.607Z,15.30
2018-07-04T23:54:49.299Z,15.20
2018-07-04T23:57:59.076Z,15.30
